Time;durP1;ratioP1;P1;durP2;ratioP2;P2;SDS_P1;SDS_P2;PMS_P1;PMS_P2;Temp;Humidity;BMP_temperature;BMP_pressure;BME280_temperature;BME280_humidity;BME280_pressure;Samples;Min_cycle;Max_cycle;Signal;HPM_P1;HPM_P2
2023/05/31 00:00:03;;;;;;;1.50;1.07;;;13.30;62.10;13.30;101422.00;;;;5021379;27;107886;-68
2023/05/31 00:02:29;;;;;;;2.77;0.83;;;13.30;62.40;13.30;101423.00;;;;5016518;27;87935;-67
2023/05/31 00:04:55;;;;;;;0.83;0.83;;;13.30;62.70;13.20;101422.00;;;;5014760;27;87880;-68
2023/05/31 00:07:20;;;;;;;0.80;0.80;;;13.30;63.20;13.20;101427.00;;;;5011555;27;87899;-67
2023/05/31 00:09:46;;;;;;;0.57;0.53;;;13.30;63.40;13.20;101422.00;;;;5014195;27;87962;-68
2023/05/31 00:12:12;;;;;;;2.17;1.37;;;13.20;63.60;13.20;101423.00;;;;5007991;27;118618;-68
2023/05/31 00:14:37;;;;;;;1.20;0.97;;;13.20;63.80;13.10;101424.00;;;;5010251;27;103338;-68
2023/05/31 00:17:03;;;;;;;1.90;1.17;;;13.10;64.00;13.00;101419.00;;;;5014195;27;110236;-68
2023/05/31 00:19:29;;;;;;;2.07;0.93;;;13.10;64.30;12.90;101425.00;;;;5012237;27;99730;-68
2023/05/31 00:21:55;;;;;;;1.27;0.77;;;13.00;64.70;12.80;101422.00;;;;5009241;27;89085;-68
2023/05/31 00:24:20;;;;;;;0.80;0.67;;;12.90;65.00;12.70;101427.00;;;;5009896;27;88964;-68
2023/05/31 00:26:46;;;;;;;1.17;1.07;;;12.70;65.30;12.60;101426.00;;;;5009404;27;109919;-69
2023/05/31 00:29:12;;;;;;;0.83;0.83;;;12.60;66.30;12.50;101425.00;;;;4998932;27;106379;-68
2023/05/31 00:31:37;;;;;;;1.97;0.80;;;12.60;66.00;12.40;101427.00;;;;5013051;27;115745;-68
2023/05/31 00:34:03;;;;;;;4.40;0.83;;;12.50;66.10;12.40;101429.00;;;;5008948;27;116788;-68
2023/05/31 00:36:29;;;;;;;2.33;0.90;;;12.40;66.30;12.30;101420.00;;;;5014786;27;88839;-68
2023/05/31 00:38:54;;;;;;;0.50;0.50;;;12.30;66.60;12.20;101419.00;;;;5012627;27;88445;-68
2023/05/31 00:41:20;;;;;;;5.40;1.40;;;12.30;67.00;12.20;101432.00;;;;5012494;27;91092;-68
2023/05/31 00:43:45;;;;;;;1.00;1.00;;;12.30;67.70;12.10;101429.00;;;;5012269;27;88012;-68
2023/05/31 00:46:33;;;;;;;1.27;1.13;;;12.20;68.20;12.00;101424.00;;;;5009684;27;109776;-67
2023/05/31 00:49:00;;;;;;;0.90;0.90;;;12.10;68.90;12.00;101419.00;;;;5012565;27;92012;-67
2023/05/31 00:51:27;;;;;;;0.90;0.80;;;12.00;69.30;12.00;101418.00;;;;5010764;27;108320;-67
2023/05/31 00:53:53;;;;;;;6.00;0.90;;;12.00;69.80;11.90;101416.00;;;;5016773;27;88108;-68
2023/05/31 00:56:21;;;;;;;0.80;0.80;;;12.00;70.20;11.90;101422.00;;;;5012093;27;88053;-67
2023/05/31 00:58:48;;;;;;;1.37;1.00;;;11.90;70.70;11.90;101420.00;;;;4998992;27;88100;-68
2023/05/31 01:01:15;;;;;;;2.03;1.43;;;11.90;71.40;11.80;101429.00;;;;5013075;27;89800;-67
2023/05/31 01:03:41;;;;;;;2.63;1.07;;;11.80;72.30;11.70;101420.00;;;;5011161;27;99879;-67
2023/05/31 01:06:08;;;;;;;0.50;0.50;;;11.70;73.20;11.60;101424.00;;;;5010708;27;87859;-67
2023/05/31 01:08:34;;;;;;;2.43;1.00;;;11.70;74.00;11.50;101426.00;;;;5005268;27;88310;-68
2023/05/31 01:11:13;;;;;;;0.97;0.97;;;11.60;74.40;11.50;101431.00;;;;5008890;27;87935;-67
2023/05/31 01:13:52;;;;;;;1.30;0.93;;;11.50;75.00;11.40;101433.00;;;;4994603;27;105423;-67
2023/05/31 01:16:27;;;;;;;0.73;0.73;;;11.50;75.40;11.40;101429.00;;;;4992187;27;88095;-67
2023/05/31 01:19:02;;;;;;;2.07;1.30;;;11.50;75.80;11.30;101423.00;;;;4978924;27;101090;-67
2023/05/31 01:21:51;;;;;;;1.30;0.80;;;11.40;76.70;11.20;101439.00;;;;5012506;27;88102;-67
2023/05/31 01:24:34;;;;;;;0.73;0.60;;;11.30;77.40;11.20;101430.00;;;;5001073;27;87769;-67
2023/05/31 01:27:01;;;;;;;1.43;1.20;;;11.30;78.40;11.10;101438.00;;;;5010566;27;102524;-67
2023/05/31 01:29:30;;;;;;;2.00;0.97;;;11.20;79.50;11.00;101438.00;;;;5013707;27;87858;-67
2023/05/31 01:31:59;;;;;;;1.03;0.97;;;11.10;80.30;11.00;101430.00;;;;4999141;27;115590;-67
2023/05/31 01:34:25;;;;;;;5.70;1.27;;;11.00;81.10;10.90;101425.00;;;;4971713;27;87852;-67
2023/05/31 01:36:50;;;;;;;3.27;1.30;;;11.00;81.80;10.80;101428.00;;;;5010513;27;88053;-67
2023/05/31 01:39:18;;;;;;;1.80;1.00;;;10.90;82.30;10.80;101417.00;;;;5010398;27;108786;-67
2023/05/31 01:41:46;;;;;;;1.00;0.73;;;10.90;82.90;10.70;101420.00;;;;5014231;27;109360;-68
2023/05/31 01:44:15;;;;;;;2.23;1.40;;;10.80;83.60;10.70;101426.00;;;;4998610;27;87171;-67
2023/05/31 01:46:42;;;;;;;1.33;1.23;;;10.80;84.30;10.70;101424.00;;;;4998443;27;88314;-68
2023/05/31 01:49:09;;;;;;;1.70;0.60;;;10.70;85.00;10.60;101421.00;;;;4993430;27;108346;-67
2023/05/31 01:51:37;;;;;;;1.17;1.03;;;10.70;85.60;10.60;101425.00;;;;5014073;27;89746;-67
2023/05/31 01:54:04;;;;;;;1.20;1.10;;;10.70;86.10;10.60;101422.00;;;;5011968;27;89176;-68
2023/05/31 01:56:31;;;;;;;1.83;0.80;;;10.60;86.70;10.50;101418.00;;;;4997169;27;88119;-68
2023/05/31 01:58:59;;;;;;;1.00;0.90;;;10.60;87.20;10.50;101418.00;;;;5015548;27;87720;-67
2023/05/31 02:01:25;;;;;;;1.43;1.07;;;10.60;87.80;10.50;101415.00;;;;5000255;27;89247;-68
2023/05/31 02:03:51;;;;;;;2.07;0.93;;;10.50;88.30;10.40;101420.00;;;;4992126;27;116828;-67
2023/05/31 02:06:17;;;;;;;1.07;0.97;;;10.50;89.00;10.40;101409.00;;;;5008003;27;87754;-67
2023/05/31 02:08:43;;;;;;;2.10;1.20;;;10.50;89.60;10.30;101422.00;;;;5013953;27;86904;-68
2023/05/31 02:11:09;;;;;;;1.47;0.87;;;10.40;90.00;10.30;101412.00;;;;5008475;27;116695;-68
2023/05/31 02:13:35;;;;;;;0.93;0.80;;;10.40;90.30;10.30;101423.00;;;;5009523;27;116996;-68
2023/05/31 02:16:03;;;;;;;0.87;0.80;;;10.30;90.40;10.20;101423.00;;;;5011700;27;88799;-68
2023/05/31 02:18:30;;;;;;;2.33;0.97;;;10.30;90.50;10.20;101419.00;;;;5010225;27;87896;-68
2023/05/31 02:20:56;;;;;;;0.93;0.80;;;10.30;90.50;10.20;101423.00;;;;4990064;27;88212;-68
2023/05/31 02:23:22;;;;;;;1.63;0.93;;;10.30;90.60;10.10;101421.00;;;;4993556;27;88135;-68
2023/05/31 02:25:48;;;;;;;1.20;1.03;;;10.20;90.60;10.10;101431.00;;;;5012247;27;99459;-67
2023/05/31 02:28:15;;;;;;;1.83;1.20;;;10.20;90.70;10.00;101423.00;;;;5008995;27;98796;-67
2023/05/31 02:30:41;;;;;;;2.50;1.07;;;10.10;90.70;10.00;101426.00;;;;5014602;27;91400;-68
2023/05/31 02:33:08;;;;;;;1.90;1.07;;;10.10;90.90;9.90;101418.00;;;;5007917;27;88632;-68
2023/05/31 02:35:33;;;;;;;0.90;0.80;;;10.00;91.00;9.80;101416.00;;;;5013937;27;87761;-67
2023/05/31 02:37:59;;;;;;;1.57;0.80;;;9.90;91.00;9.80;101424.00;;;;5008643;27;87958;-68
2023/05/31 02:40:25;;;;;;;0.77;0.77;;;9.90;91.10;9.70;101421.00;;;;5010006;27;89530;-68
2023/05/31 02:42:51;;;;;;;1.20;1.10;;;9.80;91.20;9.70;101421.00;;;;5009888;27;118670;-68
2023/05/31 02:45:17;;;;;;;0.70;0.70;;;9.80;91.30;9.70;101424.00;;;;5015990;27;87825;-68
2023/05/31 02:47:42;;;;;;;0.83;0.67;;;9.80;91.40;9.60;101420.00;;;;5013962;27;87863;-67
2023/05/31 02:50:09;;;;;;;2.80;1.30;;;10.20;91.70;9.50;101424.00;;;;5013435;27;116084;-67
2023/05/31 02:52:36;;;;;;;1.33;1.23;;;9.70;92.00;9.50;101422.00;;;;5011702;27;105112;-67
2023/05/31 02:55:03;;;;;;;1.47;1.00;;;9.60;91.80;9.50;101425.00;;;;5010367;27;88474;-69
2023/05/31 02:57:29;;;;;;;1.37;1.27;;;9.60;92.00;9.40;101425.00;;;;5010287;27;87437;-67
2023/05/31 03:00:13;;;;;;;1.43;1.17;;;9.50;92.20;9.40;101421.00;;;;5019222;27;117791;-67
2023/05/31 03:02:39;;;;;;;3.47;1.27;;;9.50;92.50;9.30;101421.00;;;;4995590;27;88170;-68
2023/05/31 03:05:06;;;;;;;1.43;1.20;;;9.40;92.50;9.30;101422.00;;;;4995221;27;88673;-67
2023/05/31 03:07:33;;;;;;;1.03;0.97;;;9.40;92.60;9.30;101422.00;;;;5016903;27;87797;-67
2023/05/31 03:09:59;;;;;;;1.53;1.17;;;9.40;92.70;9.20;101424.00;;;;5004632;27;117344;-67
2023/05/31 03:12:25;;;;;;;0.87;0.87;;;9.30;92.80;9.20;101422.00;;;;5009511;27;88685;-69
2023/05/31 03:14:50;;;;;;;1.40;1.00;;;9.30;92.80;9.10;101432.00;;;;5017123;27;108582;-68
2023/05/31 03:17:16;;;;;;;1.47;1.07;;;9.20;93.00;9.10;101434.00;;;;5010226;27;87699;-68
2023/05/31 03:19:42;;;;;;;2.77;1.00;;;9.20;93.10;9.10;101422.00;;;;5015096;27;115662;-67
2023/05/31 03:22:07;;;;;;;0.97;0.97;;;9.20;93.20;9.10;101434.00;;;;5011721;27;116766;-68
2023/05/31 03:24:33;;;;;;;1.10;1.00;;;9.20;93.30;9.00;101437.00;;;;5010509;27;108995;-67
2023/05/31 03:26:58;;;;;;;1.33;1.23;;;9.10;93.40;8.90;101417.00;;;;5004401;27;109581;-67
2023/05/31 03:29:24;;;;;;;2.10;1.10;;;9.00;93.60;8.90;101423.00;;;;4996539;27;119274;-67
2023/05/31 03:31:50;;;;;;;1.23;0.90;;;9.00;93.70;8.90;101418.00;;;;5012118;27;89227;-67
2023/05/31 03:34:16;;;;;;;1.30;1.20;;;9.00;93.80;8.90;101423.00;;;;5009932;27;87857;-67
2023/05/31 03:36:41;;;;;;;1.10;1.07;;;9.00;93.90;8.90;101426.00;;;;5010115;27;109235;-66
2023/05/31 03:39:07;;;;;;;1.30;1.17;;;9.00;94.00;9.00;101428.00;;;;4986835;27;116518;-67
2023/05/31 03:41:32;;;;;;;3.80;0.80;;;9.00;94.20;9.00;101426.00;;;;5007380;27;116440;-67
2023/05/31 03:43:58;;;;;;;1.57;1.33;;;9.00;94.20;9.00;101427.00;;;;5008777;27;110262;-67
2023/05/31 03:46:24;;;;;;;1.33;1.23;;;9.10;94.50;9.10;101426.00;;;;5005852;27;110148;-67
2023/05/31 03:48:50;;;;;;;2.97;1.23;;;9.10;94.60;9.10;101431.00;;;;5007257;27;117568;-67
2023/05/31 03:51:16;;;;;;;2.93;1.17;;;9.20;94.70;9.20;101431.00;;;;5009256;27;117862;-68
2023/05/31 03:53:42;;;;;;;1.47;0.90;;;9.30;94.80;9.30;101429.00;;;;4974185;27;99106;-67
2023/05/31 03:56:07;;;;;;;1.10;1.00;;;9.30;94.80;9.40;101439.00;;;;4994637;27;107449;-67
2023/05/31 03:58:33;;;;;;;0.87;0.87;;;9.40;94.90;9.50;101439.00;;;;5015310;27;89113;-68
2023/05/31 04:00:59;;;;;;;1.33;1.23;;;9.50;95.10;9.60;101440.00;;;;4991682;27;117730;-68
2023/05/31 04:03:25;;;;;;;0.60;0.60;;;9.60;95.20;9.70;101436.00;;;;4992719;27;109872;-67
2023/05/31 04:05:50;;;;;;;1.10;1.10;;;9.70;95.30;9.80;101443.00;;;;5016385;27;87936;-67
2023/05/31 04:08:16;;;;;;;2.40;1.20;;;9.80;95.30;9.90;101428.00;;;;5001807;27;117236;-67
2023/05/31 04:10:42;;;;;;;3.33;1.73;;;9.90;95.40;10.10;101437.00;;;;5009186;27;88691;-67
2023/05/31 04:13:14;;;;;;;2.47;0.90;;;10.10;95.50;10.20;101434.00;;;;5012022;27;109980;-67
2023/05/31 04:15:39;;;;;;;3.37;1.93;;;10.20;95.60;10.30;101436.00;;;;5010598;27;92036;-67
2023/05/31 04:18:06;;;;;;;0.87;0.83;;;10.30;95.60;10.40;101437.00;;;;5005394;27;97744;-67
2023/05/31 04:20:31;;;;;;;2.57;1.13;;;10.40;95.60;10.60;101438.00;;;;5007166;27;89763;-67
2023/05/31 04:22:57;;;;;;;2.70;1.83;;;10.80;95.70;10.70;101438.00;;;;5009258;27;87984;-67
2023/05/31 04:25:27;;;;;;;1.40;1.20;;;10.70;95.70;10.90;101448.00;;;;5009482;27;109662;-67
2023/05/31 04:27:53;;;;;;;1.23;1.13;;;10.80;95.60;11.00;101446.00;;;;5004656;27;88311;-67
2023/05/31 04:30:19;;;;;;;1.17;1.07;;;11.00;95.60;11.20;101455.00;;;;5008493;27;88058;-67
2023/05/31 04:32:45;;;;;;;1.90;1.23;;;11.20;95.60;11.30;101447.00;;;;5010585;27;87950;-67
2023/05/31 04:35:11;;;;;;;1.77;1.13;;;11.30;95.60;11.50;101442.00;;;;4973542;27;108455;-68
2023/05/31 04:37:36;;;;;;;1.00;1.00;;;11.40;95.40;11.60;101449.00;;;;5009831;27;88176;-67
2023/05/31 04:40:05;;;;;;;1.47;1.20;;;11.60;95.30;11.80;101459.00;;;;5012282;27;115910;-67
2023/05/31 04:42:31;;;;;;;1.03;0.93;;;11.70;95.20;11.90;101457.00;;;;4991021;27;90377;-67
2023/05/31 04:44:58;;;;;;;5.93;1.30;;;11.90;95.10;12.10;101455.00;;;;5007287;27;108756;-68
2023/05/31 04:47:28;;;;;;;2.17;1.60;;;12.00;95.00;12.30;101456.00;;;;5008501;27;118984;-68
2023/05/31 04:49:58;;;;;;;1.03;0.93;;;12.20;94.90;12.50;101460.00;;;;5016186;27;88206;-68
2023/05/31 04:52:28;;;;;;;1.93;1.03;;;12.50;94.90;12.80;101460.00;;;;5006182;27;87833;-68
2023/05/31 04:54:55;;;;;;;1.70;0.97;;;12.70;94.80;13.00;101449.00;;;;5008602;27;90192;-68
2023/05/31 04:57:22;;;;;;;2.13;0.60;;;12.90;94.70;13.20;101454.00;;;;5009946;27;89111;-68
2023/05/31 04:59:48;;;;;;;1.70;1.00;;;13.10;94.50;13.50;101454.00;;;;5011005;27;88602;-68
2023/05/31 05:02:17;;;;;;;1.10;0.90;;;13.40;94.40;13.80;101452.00;;;;5013323;27;87851;-68
2023/05/31 05:04:42;;;;;;;1.87;1.13;;;13.60;94.20;14.00;101448.00;;;;5009292;27;97814;-68
2023/05/31 05:07:08;;;;;;;1.33;1.00;;;13.90;94.00;14.20;101442.00;;;;5007486;27;119481;-70
2023/05/31 05:09:34;;;;;;;0.97;0.90;;;14.10;93.70;14.40;101444.00;;;;4990007;27;112498;-69
2023/05/31 05:12:00;;;;;;;0.90;0.63;;;14.30;93.30;14.70;101450.00;;;;5013421;27;88105;-68
2023/05/31 05:14:29;;;;;;;1.40;1.10;;;14.50;92.90;14.80;101453.00;;;;5009890;27;110043;-67
2023/05/31 05:16:55;;;;;;;3.95;1.00;;;14.70;92.60;15.10;101456.00;;;;4991341;27;88421;-68
2023/05/31 05:19:20;;;;;;;1.08;0.80;;;14.90;92.30;15.30;101454.00;;;;5012290;27;116488;-68
2023/05/31 05:21:46;;;;;;;1.38;1.10;;;15.10;91.90;15.40;101454.00;;;;5008596;27;109744;-68
2023/05/31 05:24:12;;;;;;;0.98;0.85;;;15.30;91.60;15.60;101453.00;;;;5005055;27;87422;-68
2023/05/31 05:26:37;;;;;;;1.00;0.80;;;15.80;91.30;15.80;101460.00;;;;5012944;27;89182;-67
2023/05/31 05:29:03;;;;;;;1.42;1.02;;;15.60;90.80;16.00;101454.00;;;;5013031;27;118049;-67
2023/05/31 05:31:29;;;;;;;1.08;0.80;;;15.80;90.50;16.10;101455.00;;;;5011253;27;111322;-67
2023/05/31 05:33:54;;;;;;;3.30;1.00;;;16.00;90.10;16.30;101459.00;;;;5014948;27;108783;-66
2023/05/31 05:36:26;;;;;;;2.05;0.98;;;16.20;89.50;16.50;101445.00;;;;5012376;27;88875;-68
2023/05/31 05:38:52;;;;;;;0.73;0.73;;;16.30;88.50;16.70;101454.00;;;;5018608;27;108069;-67
2023/05/31 05:41:18;;;;;;;1.58;0.95;;;16.50;88.40;16.80;101462.00;;;;5011785;27;88358;-68
2023/05/31 05:43:43;;;;;;;3.33;1.40;;;16.70;87.00;17.00;101450.00;;;;5016349;27;108960;-67
2023/05/31 05:46:09;;;;;;;2.35;1.27;;;16.80;85.30;17.10;101455.00;;;;5011175;27;117781;-67
2023/05/31 05:48:35;;;;;;;1.92;1.45;;;17.00;84.70;17.30;101460.00;;;;5010166;27;97020;-69
2023/05/31 05:51:00;;;;;;;2.85;0.98;;;17.20;84.10;17.50;101461.00;;;;4992019;27;108856;-67
2023/05/31 05:53:26;;;;;;;1.90;1.17;;;17.40;83.50;17.70;101457.00;;;;5012222;27;103667;-67
2023/05/31 05:55:53;;;;;;;3.15;1.60;;;17.50;82.50;17.90;101463.00;;;;5011940;27;118822;-68
2023/05/31 05:58:20;;;;;;;1.48;0.88;;;17.70;81.70;18.10;101449.00;;;;5011701;27;110888;-68
2023/05/31 06:00:46;;;;;;;2.10;0.95;;;17.90;80.70;18.30;101451.00;;;;5016608;27;87929;-67
2023/05/31 06:03:16;;;;;;;5.70;1.90;;;18.10;78.90;18.40;101458.00;;;;5011991;27;88304;-68
2023/05/31 06:05:42;;;;;;;2.65;0.98;;;18.20;77.70;18.50;101460.00;;;;5013646;27;90725;-67
2023/05/31 06:08:10;;;;;;;1.63;0.82;;;18.30;76.90;18.50;101458.00;;;;5010644;27;118074;-67
2023/05/31 06:10:36;;;;;;;2.00;1.15;;;18.40;75.50;18.50;101468.00;;;;5008707;27;87864;-67
2023/05/31 06:13:02;;;;;;;1.10;0.98;;;18.40;75.20;18.60;101456.00;;;;5013544;27;87425;-67
2023/05/31 06:15:28;;;;;;;0.82;0.80;;;18.50;74.90;18.70;101470.00;;;;5012528;27;88318;-68
2023/05/31 06:17:54;;;;;;;4.20;1.55;;;18.50;74.20;18.80;101464.00;;;;5015606;27;89070;-69
2023/05/31 06:20:21;;;;;;;0.90;0.90;;;18.60;74.20;19.00;101471.00;;;;5012321;27;108828;-69
2023/05/31 06:22:47;;;;;;;1.15;1.00;;;18.80;73.60;19.20;101471.00;;;;4993812;27;88018;-69
2023/05/31 06:25:13;;;;;;;2.20;1.00;;;19.00;73.30;19.40;101463.00;;;;4975666;27;89665;-69
2023/05/31 06:27:39;;;;;;;1.10;1.00;;;19.20;72.70;19.60;101471.00;;;;5014576;27;111039;-67
2023/05/31 06:30:05;;;;;;;2.67;1.30;;;19.40;71.00;19.80;101469.00;;;;5008996;27;88387;-67
2023/05/31 06:32:31;;;;;;;2.05;1.40;;;19.60;70.10;19.90;101476.00;;;;5007248;27;99413;-67
2023/05/31 06:34:57;;;;;;;3.13;1.02;;;19.70;69.00;20.10;101476.00;;;;5010297;27;117540;-67
2023/05/31 06:37:23;;;;;;;2.92;1.15;;;19.90;68.60;20.30;101481.00;;;;5008382;27;118054;-67
2023/05/31 06:39:50;;;;;;;1.30;1.20;;;20.10;68.40;20.60;101470.00;;;;5010940;27;99319;-67
2023/05/31 06:42:16;;;;;;;3.25;1.52;;;20.40;67.20;20.80;101467.00;;;;5006671;27;87874;-67
2023/05/31 06:44:42;;;;;;;0.85;0.85;;;20.60;65.80;21.00;101464.00;;;;5010416;27;88907;-67
2023/05/31 06:47:09;;;;;;;1.55;0.80;;;20.70;65.20;21.20;101474.00;;;;5007162;27;99701;-67
2023/05/31 06:49:34;;;;;;;1.65;0.75;;;20.90;64.10;21.30;101474.00;;;;5012929;27;87686;-67
2023/05/31 06:52:00;;;;;;;2.28;1.05;;;21.10;62.70;21.50;101475.00;;;;5009029;27;100353;-66
2023/05/31 06:54:28;;;;;;;1.88;1.38;;;21.20;62.50;21.70;101477.00;;;;5008756;27;117465;-66
2023/05/31 06:56:54;;;;;;;2.45;1.10;;;21.40;60.70;21.70;101483.00;;;;5006195;27;87967;-67
2023/05/31 06:59:20;;;;;;;1.05;0.77;;;21.50;60.00;21.80;101485.00;;;;5008225;27;88011;-67
2023/05/31 07:01:46;;;;;;;0.80;0.70;;;21.60;59.60;22.00;101476.00;;;;5007971;27;87201;-67
2023/05/31 07:04:11;;;;;;;2.25;0.93;;;21.80;59.40;22.30;101478.00;;;;5005266;27;89299;-67
2023/05/31 07:06:37;;;;;;;0.65;0.65;;;22.10;59.30;22.70;101480.00;;;;5010507;27;88434;-68
2023/05/31 07:09:06;;;;;;;3.30;1.48;;;22.40;58.80;23.00;101471.00;;;;4991155;27;88898;-67
2023/05/31 07:11:32;;;;;;;1.25;1.15;;;22.70;57.90;23.20;101478.00;;;;5002340;27;107814;-68
2023/05/31 07:14:02;;;;;;;3.47;1.42;;;22.90;57.20;23.40;101475.00;;;;5024319;27;118608;-68
2023/05/31 07:16:28;;;;;;;1.70;1.00;;;23.20;56.70;23.80;101478.00;;;;5004845;27;89269;-68
2023/05/31 07:18:55;;;;;;;1.85;1.40;;;23.50;55.60;24.10;101465.00;;;;5004936;27;88139;-69
2023/05/31 07:21:21;;;;;;;3.38;1.15;;;23.80;55.20;24.40;101472.00;;;;5007447;27;87593;-68
2023/05/31 07:23:46;;;;;;;2.85;1.25;;;24.10;54.50;24.60;101463.00;;;;5007440;27;88934;-67
2023/05/31 07:26:12;;;;;;;1.75;0.73;;;24.40;53.80;24.80;101456.00;;;;5003841;27;117141;-68
2023/05/31 07:28:38;;;;;;;3.20;1.23;;;24.60;53.00;24.90;101459.00;;;;5010605;27;87877;-68
2023/05/31 07:31:04;;;;;;;1.02;0.88;;;24.70;52.40;25.10;101453.00;;;;5004153;27;108670;-68
2023/05/31 07:33:30;;;;;;;1.30;1.00;;;24.90;52.00;25.40;101461.00;;;;5002073;27;118430;-68
2023/05/31 07:36:00;;;;;;;2.55;1.00;;;25.10;51.70;25.70;101454.00;;;;4996067;27;89000;-68
2023/05/31 07:38:26;;;;;;;1.17;0.93;;;25.40;51.20;25.90;101452.00;;;;5008070;27;88042;-67
2023/05/31 07:40:51;;;;;;;1.83;1.10;;;25.70;50.70;26.20;101454.00;;;;5011314;27;96250;-67
2023/05/31 07:43:21;;;;;;;1.10;0.85;;;25.90;50.00;26.40;101453.00;;;;5002664;27;94673;-69
2023/05/31 07:45:48;;;;;;;2.53;1.27;;;26.20;49.00;26.50;101453.00;;;;4987280;27;88239;-68
2023/05/31 07:48:13;;;;;;;1.15;0.70;;;26.40;47.40;26.60;101457.00;;;;5005503;27;87870;-70
2023/05/31 07:50:39;;;;;;;1.17;1.10;;;26.40;47.50;26.70;101445.00;;;;5010016;27;109830;-71
2023/05/31 07:53:05;;;;;;;2.70;1.02;;;26.60;47.40;26.90;101452.00;;;;5011374;27;87961;-69
2023/05/31 07:55:30;;;;;;;1.45;0.77;;;26.70;47.30;27.10;101451.00;;;;5007779;27;88546;-69
2023/05/31 07:57:56;;;;;;;1.35;1.25;;;26.90;47.00;27.30;101443.00;;;;5009858;27;110318;-70
2023/05/31 08:00:23;;;;;;;1.63;0.68;;;27.10;47.30;27.60;101439.00;;;;5011306;27;109221;-71
2023/05/31 08:02:49;;;;;;;0.40;0.40;;;27.30;46.10;27.80;101446.00;;;;5005203;27;103328;-70
2023/05/31 08:05:14;;;;;;;0.80;0.80;;;27.60;45.60;28.00;101440.00;;;;5015152;27;117216;-71
2023/05/31 08:07:40;;;;;;;1.33;0.70;;;27.80;45.00;28.10;101440.00;;;;5009695;27;88018;-70
2023/05/31 08:10:06;;;;;;;1.52;1.00;;;27.90;43.30;28.20;101447.00;;;;5009470;27;87791;-71
2023/05/31 08:12:32;;;;;;;2.60;0.63;;;28.00;43.20;28.30;101447.00;;;;5016686;27;98589;-70
2023/05/31 08:14:58;;;;;;;0.65;0.60;;;28.10;43.20;28.40;101446.00;;;;5023055;27;87039;-71
2023/05/31 08:17:24;;;;;;;3.90;0.85;;;28.20;43.00;28.60;101444.00;;;;4987458;27;87936;-70
2023/05/31 08:19:50;;;;;;;1.67;0.73;;;28.40;42.50;28.80;101437.00;;;;5013996;27;87713;-70
2023/05/31 08:22:15;;;;;;;1.48;0.93;;;28.50;41.80;28.90;101437.00;;;;5014481;27;103220;-70
2023/05/31 08:24:41;;;;;;;1.67;0.73;;;28.60;41.00;29.00;101436.00;;;;5011055;27;116952;-71
2023/05/31 08:27:07;;;;;;;0.98;0.50;;;28.80;41.00;29.00;101433.00;;;;5012199;27;98800;-69
2023/05/31 08:29:33;;;;;;;1.70;0.82;;;28.80;39.10;29.00;101430.00;;;;5012891;27;108472;-69
2023/05/31 08:31:59;;;;;;;1.33;0.73;;;28.80;38.50;28.90;101428.00;;;;5000325;27;105270;-68
2023/05/31 08:34:25;;;;;;;0.60;0.60;;;28.80;37.00;28.80;101424.00;;;;5014106;27;89496;-70
2023/05/31 08:36:51;;;;;;;0.82;0.60;;;28.60;37.40;28.90;101432.00;;;;5013111;27;87664;-69
2023/05/31 08:39:17;;;;;;;3.65;0.68;;;28.70;37.50;29.00;101431.00;;;;5011809;27;87007;-70
2023/05/31 08:41:55;;;;;;;0.50;0.50;;;28.80;37.40;29.20;101432.00;;;;4993076;27;88005;-70
2023/05/31 08:44:21;;;;;;;0.98;0.82;;;28.90;37.00;29.40;101435.00;;;;4992023;27;100585;-71
2023/05/31 08:46:48;;;;;;;1.13;0.55;;;29.10;36.20;29.50;101418.00;;;;5012733;27;89487;-71
2023/05/31 08:49:17;;;;;;;0.88;0.60;;;29.30;34.40;29.40;101416.00;;;;5012977;27;109644;-70
2023/05/31 08:51:47;;;;;;;4.35;0.63;;;29.20;33.00;29.20;101416.00;;;;4999531;27;89042;-71
2023/05/31 08:54:14;;;;;;;1.42;0.60;;;29.00;32.90;28.90;101422.00;;;;5008531;27;103099;-73
2023/05/31 08:56:40;;;;;;;1.13;0.65;;;28.80;32.80;28.70;101417.00;;;;5017204;27;87658;-72
2023/05/31 08:59:11;;;;;;;0.25;0.25;;;28.60;33.30;28.70;101417.00;;;;5016117;27;87691;-73
2023/05/31 09:01:38;;;;;;;0.63;0.50;;;28.50;34.00;28.80;101417.00;;;;5012151;27;88021;-73
2023/05/31 09:04:06;;;;;;;0.65;0.65;;;28.50;34.30;28.90;101428.00;;;;5012949;27;87920;-71
2023/05/31 09:06:34;;;;;;;1.77;0.88;;;28.60;34.50;29.10;101414.00;;;;5016010;27;87847;-73
2023/05/31 09:09:00;;;;;;;0.93;0.80;;;28.70;34.70;29.30;101420.00;;;;5010825;27;88462;-71
2023/05/31 09:11:51;;;;;;;0.63;0.50;;;28.90;34.80;29.50;101411.00;;;;5005618;27;89002;-71
2023/05/31 09:14:16;;;;;;;2.40;0.40;;;29.10;34.40;29.60;101416.00;;;;4999866;27;104362;-71
2023/05/31 09:16:42;;;;;;;0.63;0.50;;;29.20;34.30;29.70;101407.00;;;;5008282;27;109890;-71
2023/05/31 09:19:08;;;;;;;0.65;0.65;;;29.30;33.80;29.80;101405.00;;;;5012963;27;100377;-73
2023/05/31 09:21:42;;;;;;;1.75;0.77;;;29.40;33.70;29.90;101415.00;;;;5013561;27;116505;-69
2023/05/31 09:24:10;;;;;;;2.35;0.73;;;29.50;33.70;30.00;101405.00;;;;4996212;27;87953;-73
2023/05/31 09:26:45;;;;;;;0.88;0.30;;;29.60;32.60;29.90;101407.00;;;;4992058;27;87880;-70
2023/05/31 09:29:11;;;;;;;4.40;0.77;;;29.60;32.40;30.00;101404.00;;;;4980824;27;86893;-70
2023/05/31 09:31:37;;;;;;;2.40;0.90;;;29.60;32.80;30.10;101401.00;;;;5006108;27;118279;-69
2023/05/31 09:34:02;;;;;;;1.02;0.52;;;29.70;32.60;30.10;101396.00;;;;5009154;27;116808;-71
2023/05/31 09:36:31;;;;;;;2.78;0.88;;;29.80;32.20;30.00;101400.00;;;;5013176;27;109253;-73
2023/05/31 09:39:04;;;;;;;0.55;0.40;;;29.70;32.20;30.10;101399.00;;;;5014214;27;88157;-72
2023/05/31 09:41:34;;;;;;;0.73;0.52;;;29.70;31.40;30.00;101400.00;;;;4999384;27;87959;-70
2023/05/31 09:44:00;;;;;;;0.50;0.50;;;29.60;31.00;29.90;101405.00;;;;5009133;27;89748;-70
2023/05/31 09:46:26;;;;;;;1.05;0.70;;;29.50;30.90;29.90;101386.00;;;;5012729;27;109853;-70
2023/05/31 09:49:00;;;;;;;0.85;0.60;;;29.50;31.10;29.90;101387.00;;;;5006440;27;90960;-72
2023/05/31 09:51:27;;;;;;;0.30;0.30;;;29.50;31.40;30.00;101381.00;;;;5010117;27;88464;-72
2023/05/31 09:53:55;;;;;;;0.68;0.68;;;29.50;30.50;29.90;101392.00;;;;5013695;27;87834;-70
2023/05/31 09:56:23;;;;;;;1.23;0.63;;;29.50;30.30;29.70;101381.00;;;;4997084;27;87875;-74
2023/05/31 09:58:50;;;;;;;0.57;0.57;;;29.30;30.20;29.30;101371.00;;;;5021434;27;87795;-72
2023/05/31 10:01:17;;;;;;;4.78;1.00;;;29.00;30.60;29.30;101378.00;;;;5012019;27;89400;-72
2023/05/31 10:03:44;;;;;;;0.63;0.35;;;28.90;31.00;29.40;101386.00;;;;5012515;27;110541;-71
2023/05/31 10:06:11;;;;;;;0.52;0.35;;;28.90;30.80;29.60;101381.00;;;;5009882;27;88138;-73
2023/05/31 10:08:37;;;;;;;0.98;0.63;;;29.00;31.00;29.80;101382.00;;;;5013813;27;88255;-72
2023/05/31 10:11:03;;;;;;;0.60;0.35;;;29.20;30.50;30.00;101370.00;;;;5013944;27;89020;-71
2023/05/31 10:13:31;;;;;;;5.13;0.65;;;29.30;30.50;30.30;101367.00;;;;5012830;27;114990;-70
2023/05/31 10:16:05;;;;;;;2.13;0.85;;;29.60;30.60;30.60;101372.00;;;;5009665;27;87765;-70
2023/05/31 10:18:34;;;;;;;0.45;0.45;;;29.90;30.00;30.30;101365.00;;;;4994893;27;87173;-73
2023/05/31 10:21:08;;;;;;;3.20;0.35;;;29.90;29.80;30.10;101367.00;;;;4998039;27;87901;-72
2023/05/31 10:23:53;;;;;;;1.27;0.73;;;29.70;30.00;30.10;101364.00;;;;4984921;27;89517;-71
2023/05/31 10:26:20;;;;;;;1.63;0.88;;;29.60;30.50;30.40;101369.00;;;;4996824;27;102037;-70
2023/05/31 10:29:15;;;;;;;0.52;0.47;;;29.70;30.40;30.60;101364.00;;;;4992333;27;87898;-71
2023/05/31 10:31:49;;;;;;;6.70;0.80;;;29.90;30.60;30.80;101357.00;;;;5008723;27;87823;-71
2023/05/31 10:34:24;;;;;;;1.88;0.52;;;30.10;30.00;31.10;101369.00;;;;5012741;27;87832;-70
2023/05/31 10:36:54;;;;;;;1.75;0.65;;;30.30;29.50;31.20;101358.00;;;;5010932;27;87801;-71
2023/05/31 10:39:31;;;;;;;3.33;0.40;;;30.40;29.90;31.60;101347.00;;;;5007155;27;87937;-71
2023/05/31 10:42:24;;;;;;;0.40;0.38;;;30.70;29.90;31.70;101346.00;;;;4991347;27;98395;-70
2023/05/31 10:45:12;;;;;;;0.60;0.57;;;30.90;29.90;32.10;101341.00;;;;4996406;27;92644;-71
2023/05/31 10:47:56;;;;;;;0.77;0.77;;;31.20;29.90;32.50;101334.00;;;;4993527;27;88021;-72